Terminal Aerodrome Forecast
Issued by NWS

Home | Current Version | Previous Version | Graphics & Text | Print | Product List | Glossary On
Versions: 1 2 3 4 5 6 7 8 9 10 11 12 13 14 15 16 17 18 19 20
000
FTUS43 KGRB 261900 AAA
TAFCWA
TAF AMD
KCWA 261954Z 2620/2718 32010G18KT P6SM BKN040
     FM270100 35006KT P6SM SCT040
     FM270600 34006KT P6SM SKC
     FM271500 35007KT P6SM FEW030=

USA.gov is the U.S. government's official web portal to all federal, state and local government web resources and services.